Terminal Aerodrome Forecast
Issued by NWS

Home | Current Version | Previous Version | Graphics & Text | Print | Product List | Glossary On
Versions: 1 2 3 4 5 6 7 8 9 10 11 12 13 14 15 16 17 18 19 20 21 22 23
000
FTUS43 KGRB 181729
TAFCWA
TAF
KCWA 181729Z 1818/1918 13007KT P6SM BKN019 BKN050
     FM181900 12006KT P6SM SCT020 BKN070
     FM182200 10005KT P6SM OVC070
      TEMPO 1822/1902 6SM -SHRA
     FM190500 10005KT P6SM BKN070
     FM191300 11006KT P6SM SCT070=

USA.gov is the U.S. government's official web portal to all federal, state and local government web resources and services.